CST,Max TemperatureF,Mean TemperatureF,Min TemperatureF,Max Dew PointF,MeanDew PointF,Min DewpointF,Max Humidity, Mean Humidity, Min Humidity, Max Sea Level PressureIn, Mean Sea Level PressureIn, Min Sea Level PressureIn, Max VisibilityMiles, Mean VisibilityMiles, Min VisibilityMiles, Max Wind SpeedMPH, Mean Wind SpeedMPH, Max Gust SpeedMPH,PrecipitationIn, CloudCover, Events, WindDirDegrees
2012-11-1,83,70,57,70,65,57,100,93,43,30.09,30.02,29.96,10,5,0,12,3,,0.00,5,Fog,249
2012-11-2,83,72,59,70,65,57,100,88,40,30.06,30.00,29.92,10,10,10,13,5,,0.00,4,,198
2012-11-3,85,72,60,70,64,59,100,85,42,30.08,30.02,29.95,10,10,10,15,2,,0.00,3,,109
2012-11-4,82,70,60,66,63,58,100,92,48,30.11,30.06,30.01,10,6,0,10,4,,0.13,2,Fog-Rain-Thunderstorm,307
2012-11-5,85,71,57,66,60,49,99,70,45,30.07,30.02,29.93,10,10,7,12,5,,0.00,0,,314
2012-11-6,77,66,52,50,43,36,84,47,28,30.20,30.11,30.07,10,10,10,10,5,,0.00,0,Rain,18
2012-11-7,81,65,49,54,50,46,89,59,34,30.19,30.10,30.05,10,10,10,8,4,,0.00,0,Rain,243
2012-11-8,82,66,51,64,54,52,100,90,35,30.18,30.08,29.99,10,4,0,18,2,23,0.00,0,Fog,175
2012-11-9,83,70,57,70,61,56,100,93,41,30.08,30.03,29.94,10,4,0,23,3,29,0.00,1,Fog,162
2012-11-10,81,70,60,67,62,57,100,89,43,30.03,29.97,29.87,10,7,1,23,7,30,0.00,2,,156
2012-11-11,80,73,65,68,59,31,98,62,27,30.16,29.91,29.83,10,8,4,18,10,28,0.00,2,,224
2012-11-12,66,56,46,40,31,20,62,41,19,30.47,30.34,30.17,10,7,2,16,12,22,0.00,3,,17
2012-11-13,54,50,45,42,30,22,76,50,29,30.49,30.39,30.34,10,10,10,10,7,,0.00,6,Rain,44
2012-11-14,61,52,44,44,38,35,87,58,41,30.42,30.34,30.28,10,10,10,7,3,,0.00,6,,358
2012-11-15,61,51,41,43,40,34,100,73,36,30.31,30.27,30.22,10,9,6,6,4,,0.00,5,,5
2012-11-16,68,60,50,44,36,30,63,43,30,30.36,30.30,30.26,10,10,10,14,5,20,0.00,3,,48
2012-11-17,68,54,39,40,35,32,76,52,26,30.39,30.32,30.27,10,9,4,7,4,,0.00,0,,17
2012-11-18,73,58,42,54,48,39,93,67,41,30.29,30.23,30.17,10,10,10,14,5,17,0.00,1,,147
2012-11-19,71,62,53,57,55,53,99,78,60,30.26,30.19,30.14,10,10,10,9,4,,0.00,5,,156
2012-11-20,79,66,52,62,57,52,99,78,51,30.22,30.17,30.11,10,10,10,9,3,,0.00,0,,261
2012-11-21,78,66,53,60,55,49,99,75,38,30.27,30.20,30.15,10,10,7,8,3,,0.00,1,,167
2012-11-22,77,62,48,62,52,48,100,94,46,30.16,30.13,30.04,10,4,0,15,2,22,0.00,0,Fog-Rain,287
2012-11-23,70,62,54,63,50,29,99,66,32,30.36,30.26,30.12,10,10,10,15,7,28,0.00,3,,5
2012-11-24,66,57,48,31,25,21,51,31,19,30.41,30.29,30.17,10,10,5,13,8,18,0.00,3,Rain,62
2012-11-25,74,60,47,63,52,28,94,73,43,30.14,30.01,29.94,10,10,10,15,6,22,0.00,3,,202
2012-11-26,78,68,58,65,62,50,100,95,61,30.15,29.97,29.92,10,4,0,18,6,24,0.05,6,Fog-Rain,222
2012-11-27,63,54,43,50,43,37,88,68,44,30.38,30.25,30.14,10,9,4,18,13,24,0.11,2,Rain,4
2012-11-28,66,52,37,48,43,37,99,79,45,30.45,30.35,30.28,10,10,7,8,4,,0.00,0,,55
2012-11-29,70,54,39,60,50,39,99,82,57,30.28,30.20,30.13,10,10,8,10,5,,0.00,3,,173
2012-11-30,77,66,56,67,60,57,100,97,59,30.18,30.13,30.04,10,4,0,10,1,,0.00,4,Fog,165